createdAt,value
2022-08-05T00:01:56.969Z,61.04
2022-08-05T00:05:27.485Z,60.66
2022-08-05T00:08:35.470Z,61.89
2022-08-05T00:11:48.268Z,62.46
2022-08-05T00:14:52.038Z,62.19
2022-08-05T00:17:54.660Z,62.99
2022-08-05T00:20:57.339Z,63.00
2022-08-05T00:24:10.640Z,63.35
2022-08-05T00:27:13.890Z,63.87
2022-08-05T00:30:19.167Z,64.95
2022-08-05T00:34:55.924Z,65.45
2022-08-05T00:37:11.392Z,66.44
2022-08-05T00:40:17.965Z,67.70
2022-08-05T00:43:47.093Z,68.29
2022-08-05T00:46:54.208Z,68.60
2022-08-05T00:50:05.239Z,70.33
2022-08-05T00:53:16.015Z,70.69
2022-08-05T00:56:30.651Z,72.78
2022-08-05T00:59:42.077Z,73.27
2022-08-05T01:02:47.092Z,73.28
2022-08-05T01:05:54.336Z,73.65
2022-08-05T01:08:57.621Z,74.52
2022-08-05T01:12:18.209Z,74.91
2022-08-05T01:15:36.141Z,75.10
2022-08-05T01:18:42.692Z,75.25
2022-08-05T01:21:55.690Z,76.34
2022-08-05T01:25:07.165Z,76.63
2022-08-05T01:28:12.953Z,77.34
2022-08-05T01:31:22.284Z,77.60
2022-08-05T01:34:30.876Z,78.30
2022-08-05T01:37:47.899Z,78.63
2022-08-05T01:40:52.925Z,78.38
2022-08-05T01:43:56.472Z,78.82
2022-08-05T01:47:00.993Z,79.21
2022-08-05T01:50:05.972Z,79.48
2022-08-05T01:53:12.136Z,79.88
2022-08-05T01:58:11.967Z,80.19
2022-08-05T01:59:40.869Z,80.23
2022-08-05T02:02:56.319Z,79.37
2022-08-05T02:06:33.309Z,79.48
2022-08-05T02:09:26.260Z,79.66
2022-08-05T02:12:43.208Z,79.19
2022-08-05T02:15:51.072Z,79.41
2022-08-05T02:18:59.828Z,79.43
2022-08-05T02:22:17.471Z,79.67
2022-08-05T02:25:49.085Z,81.19
2022-08-05T02:28:54.955Z,81.50
2022-08-05T02:31:58.136Z,81.86
2022-08-05T02:35:15.209Z,82.15
2022-08-05T02:38:26.917Z,83.11
2022-08-05T02:41:43.063Z,83.50
2022-08-05T02:44:58.793Z,83.08
2022-08-05T02:48:12.060Z,82.65
2022-08-05T02:51:15.858Z,82.37
2022-08-05T02:54:35.999Z,81.17
2022-08-05T02:58:11.206Z,80.62
2022-08-05T03:01:02.833Z,81.44
2022-08-05T03:04:13.991Z,80.57
2022-08-05T03:07:40.685Z,80.85
2022-08-05T03:10:44.245Z,80.86
2022-08-05T03:14:07.927Z,80.61
2022-08-05T03:17:10.743Z,80.59
2022-08-05T03:20:13.455Z,80.61
2022-08-05T03:23:16.642Z,80.01
2022-08-05T03:26:31.367Z,80.82
2022-08-05T03:29:45.424Z,80.63
2022-08-05T03:32:58.374Z,80.77
2022-08-05T03:36:01.357Z,80.24
2022-08-05T03:39:20.332Z,79.91
2022-08-05T03:42:32.329Z,80.50
2022-08-05T03:45:58.291Z,80.64
2022-08-05T03:49:01.841Z,79.70
2022-08-05T03:52:48.514Z,79.89
2022-08-05T03:56:05.809Z,78.63
2022-08-05T03:59:06.334Z,77.96
2022-08-05T04:02:14.858Z,77.16
2022-08-05T04:05:21.064Z,77.23
2022-08-05T04:08:34.595Z,77.77
2022-08-05T04:11:47.403Z,78.26
2022-08-05T04:14:54.132Z,78.53
2022-08-05T04:18:09.522Z,79.19
2022-08-05T04:21:12.992Z,79.19
2022-08-05T04:24:35.641Z,79.10
2022-08-05T04:27:43.849Z,79.10
2022-08-05T04:31:01.346Z,78.16
2022-08-05T04:34:29.555Z,78.95
2022-08-05T04:38:02.724Z,79.00
2022-08-05T04:40:50.770Z,78.74
2022-08-05T04:43:53.604Z,78.96
2022-08-05T04:46:58.483Z,78.92
2022-08-05T04:50:10.846Z,78.48
2022-08-05T04:53:15.499Z,76.59
2022-08-05T04:56:34.511Z,76.47
2022-08-05T04:59:40.855Z,75.27
2022-08-05T05:02:43.674Z,75.15
2022-08-05T05:06:39.867Z,74.54
2022-08-05T05:09:10.252Z,73.77
2022-08-05T05:12:16.602Z,72.07
2022-08-05T05:15:57.927Z,70.84
2022-08-05T05:19:02.517Z,69.40
2022-08-05T05:22:22.978Z,69.49
2022-08-05T05:25:40.373Z,68.24
2022-08-05T05:28:45.128Z,65.74
2022-08-05T05:31:47.691Z,62.78
2022-08-05T05:34:52.504Z,62.60
2022-08-05T05:37:59.783Z,61.34
2022-08-05T05:41:03.269Z,60.22
2022-08-05T05:44:37.396Z,58.83
2022-08-05T05:48:06.907Z,59.27
2022-08-05T05:50:54.983Z,58.60
2022-08-05T05:53:59.964Z,58.21
2022-08-05T05:57:02.337Z,57.33
2022-08-05T06:00:06.815Z,57.36
2022-08-05T06:03:28.383Z,57.19
2022-08-05T06:06:36.833Z,55.49
2022-08-05T06:10:00.149Z,52.61
2022-08-05T06:13:06.776Z,53.21
2022-08-05T06:16:30.334Z,53.61
2022-08-05T06:19:35.001Z,51.82
2022-08-05T06:22:37.879Z,53.37
2022-08-05T06:26:12.583Z,51.98
2022-08-05T06:29:23.692Z,50.85
2022-08-05T06:32:28.835Z,51.51
2022-08-05T06:36:03.639Z,46.52
2022-08-05T06:38:54.831Z,43.11
2022-08-05T06:41:58.954Z,44.76
2022-08-05T06:45:05.237Z,44.91
2022-08-05T06:48:37.219Z,43.75
2022-08-05T06:51:31.825Z,44.31
2022-08-05T06:54:34.158Z,42.88
2022-08-05T06:57:57.510Z,36.74
2022-08-05T07:01:01.840Z,27.13
2022-08-05T07:04:04.640Z,21.64
2022-08-05T07:07:08.039Z,19.35
2022-08-05T07:10:16.293Z,18.42
2022-08-05T07:13:57.053Z,15.99
2022-08-05T07:18:02.125Z,13.66
2022-08-05T07:20:33.388Z,12.64
2022-08-05T07:23:37.467Z,12.98
2022-08-05T07:26:51.499Z,12.16
2022-08-05T07:30:27.356Z,11.10
2022-08-05T07:33:17.315Z,10.78
2022-08-05T07:36:21.418Z,11.30
2022-08-05T07:39:24.465Z,10.73
2022-08-05T07:42:47.017Z,9.74
2022-08-05T07:45:57.136Z,10.95
2022-08-05T07:49:06.017Z,10.17
2022-08-05T07:52:10.213Z,10.56
2022-08-05T07:55:44.464Z,9.53
2022-08-05T07:58:57.626Z,9.11
2022-08-05T08:01:58.591Z,8.68
2022-08-05T08:05:01.208Z,9.07
2022-08-05T08:08:03.771Z,8.82
2022-08-05T08:11:15.987Z,8.39
2022-08-05T08:14:19.171Z,8.49
2022-08-05T08:17:22.535Z,8.70
2022-08-05T08:21:00.220Z,8.32
2022-08-05T08:24:02.764Z,8.51
2022-08-05T08:27:07.518Z,9.36
2022-08-05T08:30:19.002Z,8.73
2022-08-05T08:33:22.687Z,9.34
2022-08-05T08:36:37.625Z,9.33
2022-08-05T08:39:49.776Z,9.64
2022-08-05T08:42:53.191Z,8.54
2022-08-05T08:45:59.173Z,8.45
2022-08-05T08:50:03.964Z,8.24
2022-08-05T08:52:29.498Z,9.02
2022-08-05T08:56:04.560Z,8.17
2022-08-05T08:58:59.325Z,8.11
2022-08-05T09:02:05.882Z,8.90
2022-08-05T09:05:17.944Z,9.01
2022-08-05T09:08:27.278Z,8.91
2022-08-05T09:11:50.770Z,9.49
2022-08-05T09:15:04.860Z,9.15
2022-08-05T09:18:09.494Z,9.79
2022-08-05T09:21:21.151Z,9.12
2022-08-05T09:24:37.624Z,11.58
2022-08-05T09:28:04.419Z,15.30
2022-08-05T09:31:22.926Z,17.79
2022-08-05T09:34:45.642Z,19.12
2022-08-05T09:38:18.452Z,19.53
2022-08-05T09:41:16.192Z,19.50
2022-08-05T09:44:32.617Z,19.64
2022-08-05T09:47:55.527Z,19.96
2022-08-05T09:51:01.747Z,20.15
2022-08-05T09:54:07.693Z,19.92
2022-08-05T09:57:23.301Z,20.19
2022-08-05T10:00:26.749Z,19.73
2022-08-05T10:03:56.960Z,19.79
2022-08-05T10:06:58.910Z,20.38
2022-08-05T10:10:14.379Z,20.07
2022-08-05T10:13:27.023Z,19.77
2022-08-05T10:16:41.608Z,20.15
2022-08-05T10:20:04.549Z,20.13
2022-08-05T10:23:34.224Z,20.52
2022-08-05T10:26:36.495Z,20.01
2022-08-05T10:30:41.169Z,20.17
2022-08-05T10:33:14.909Z,19.79
2022-08-05T10:36:17.927Z,19.81
2022-08-05T10:39:59.476Z,19.70
2022-08-05T10:42:54.096Z,19.39
2022-08-05T10:46:06.169Z,20.14
2022-08-05T10:49:10.491Z,20.47
2022-08-05T10:52:58.738Z,20.18
2022-08-05T10:56:03.499Z,20.01
2022-08-05T11:00:02.413Z,19.78
2022-08-05T11:03:23.063Z,19.66
2022-08-05T11:06:30.908Z,19.63
2022-08-05T11:09:46.648Z,19.62
2022-08-05T11:12:50.710Z,19.57
2022-08-05T11:16:17.827Z,19.89
2022-08-05T11:20:16.683Z,19.32
2022-08-05T11:22:54.086Z,19.35
2022-08-05T11:26:10.288Z,20.17
2022-08-05T11:29:32.919Z,19.37
2022-08-05T11:32:35.251Z,19.55
2022-08-05T11:36:04.419Z,19.53
2022-08-05T11:39:12.154Z,19.59
2022-08-05T11:42:18.239Z,20.15
2022-08-05T11:45:27.071Z,19.74
2022-08-05T11:48:43.564Z,20.06
2022-08-05T11:51:49.362Z,19.12
2022-08-05T11:54:54.916Z,19.06
2022-08-05T11:58:09.811Z,19.34
2022-08-05T12:01:15.633Z,19.24
2022-08-05T12:04:22.343Z,19.29
2022-08-05T12:08:08.931Z,19.32
2022-08-05T12:10:48.713Z,18.92
2022-08-05T12:13:59.601Z,19.17
2022-08-05T12:18:03.050Z,19.42
2022-08-05T12:20:39.101Z,19.68
2022-08-05T12:23:51.516Z,20.02
2022-08-05T12:26:54.206Z,20.27
2022-08-05T12:30:00.464Z,20.49
2022-08-05T12:33:07.138Z,20.32
2022-08-05T12:36:29.477Z,20.88
2022-08-05T12:39:37.118Z,19.98
2022-08-05T12:42:41.263Z,19.99
2022-08-05T12:45:56.400Z,20.52
2022-08-05T12:49:13.815Z,19.42
2022-08-05T12:52:23.819Z,19.29
2022-08-05T12:55:32.958Z,19.57
2022-08-05T12:58:52.625Z,19.24
2022-08-05T13:02:27.246Z,19.00
2022-08-05T13:05:37.644Z,19.56
2022-08-05T13:08:40.507Z,19.36
2022-08-05T13:12:03.021Z,19.67
2022-08-05T13:15:13.719Z,19.87
2022-08-05T13:18:20.792Z,20.27
2022-08-05T13:21:28.426Z,19.66
2022-08-05T13:24:51.346Z,20.06
2022-08-05T13:28:00.423Z,19.55
2022-08-05T13:31:11.118Z,19.46
2022-08-05T13:34:21.985Z,19.31
2022-08-05T13:37:34.836Z,20.02
2022-08-05T13:40:51.754Z,19.90
2022-08-05T13:43:55.415Z,19.51
2022-08-05T13:47:04.822Z,19.78
2022-08-05T13:50:16.222Z,19.08
2022-08-05T13:53:19.360Z,19.56
2022-08-05T13:56:21.877Z,19.92
2022-08-05T13:59:27.547Z,19.35
2022-08-05T14:02:33.256Z,19.91
2022-08-05T14:06:24.444Z,20.26
2022-08-05T14:08:59.498Z,19.97
2022-08-05T14:12:17.281Z,20.37
2022-08-05T14:16:06.971Z,20.20
2022-08-05T14:18:42.985Z,19.75
2022-08-05T14:22:09.063Z,19.34
2022-08-05T14:25:22.005Z,20.19
2022-08-05T14:28:27.151Z,20.24
2022-08-05T14:32:02.857Z,20.96
2022-08-05T14:34:53.383Z,20.86
2022-08-05T14:37:57.203Z,21.45
2022-08-05T14:41:06.861Z,20.70
2022-08-05T14:44:20.645Z,21.03
2022-08-05T14:48:03.644Z,21.19
2022-08-05T14:50:47.384Z,20.59
2022-08-05T14:54:26.565Z,20.87
2022-08-05T14:57:13.997Z,20.99
2022-08-05T15:00:17.284Z,21.27
2022-08-05T15:03:22.914Z,21.50
2022-08-05T15:06:27.914Z,20.54
2022-08-05T15:09:50.504Z,21.61
2022-08-05T15:13:01.208Z,21.25
2022-08-05T15:16:06.512Z,20.85
2022-08-05T15:19:14.458Z,21.11
2022-08-05T15:22:27.789Z,20.90
2022-08-05T15:25:51.485Z,20.80
2022-08-05T15:28:53.407Z,21.17
2022-08-05T15:31:55.848Z,21.63
2022-08-05T15:34:58.441Z,22.42
2022-08-05T15:38:32.774Z,21.87
2022-08-05T15:41:24.738Z,21.99
2022-08-05T15:44:46.880Z,22.45
2022-08-05T15:47:49.495Z,22.09
2022-08-05T15:50:57.322Z,21.96
2022-08-05T15:54:00.127Z,21.90
2022-08-05T15:57:03.428Z,21.89
2022-08-05T16:00:10.737Z,22.20
2022-08-05T16:03:14.315Z,22.04
2022-08-05T16:06:20.215Z,21.88
2022-08-05T16:09:24.127Z,22.83
2022-08-05T16:12:27.092Z,23.40
2022-08-05T16:15:32.621Z,23.75
2022-08-05T16:18:51.899Z,24.30
2022-08-05T16:22:00.419Z,23.37
2022-08-05T16:25:07.945Z,23.29
2022-08-05T16:28:13.643Z,23.37
2022-08-05T16:31:18.057Z,23.47
2022-08-05T16:34:22.487Z,23.63
2022-08-05T16:38:02.516Z,23.28
2022-08-05T16:40:55.497Z,24.29
2022-08-05T16:44:02.376Z,23.80
2022-08-05T16:47:05.379Z,23.99
2022-08-05T16:50:29.546Z,24.42
2022-08-05T16:54:06.104Z,25.17
2022-08-05T16:57:26.758Z,26.14
2022-08-05T17:00:49.492Z,26.75
2022-08-05T17:03:52.787Z,27.02
2022-08-05T17:07:00.100Z,29.67
2022-08-05T17:10:04.134Z,28.15
2022-08-05T17:13:17.128Z,26.99
2022-08-05T17:16:32.987Z,26.61
2022-08-05T17:19:36.384Z,26.51
2022-08-05T17:22:38.716Z,27.26
2022-08-05T17:25:41.955Z,28.72
2022-08-05T17:28:44.835Z,28.41
2022-08-05T17:31:58.447Z,28.94
2022-08-05T17:35:01.699Z,28.42
2022-08-05T17:38:08.143Z,28.99
2022-08-05T17:41:22.961Z,29.87
2022-08-05T17:44:33.346Z,31.42
2022-08-05T17:47:35.757Z,30.33
2022-08-05T17:50:39.413Z,31.80
2022-08-05T17:53:42.423Z,31.95
2022-08-05T17:56:45.458Z,31.17
2022-08-05T18:00:05.232Z,32.60
2022-08-05T18:03:08.732Z,32.73
2022-08-05T18:06:14.868Z,33.31
2022-08-05T18:09:18.040Z,32.74
2022-08-05T18:12:22.234Z,34.18
2022-08-05T18:15:27.671Z,33.07
2022-08-05T18:18:34.025Z,33.48
2022-08-05T18:22:08.916Z,34.76
2022-08-05T18:25:05.692Z,34.53
2022-08-05T18:28:09.542Z,34.00
2022-08-05T18:31:11.889Z,34.24
2022-08-05T18:34:14.813Z,34.74
2022-08-05T18:37:34.336Z,34.29
2022-08-05T18:41:55.276Z,35.26
2022-08-05T18:44:06.270Z,35.17
2022-08-05T18:47:10.500Z,35.38
2022-08-05T18:50:45.200Z,35.60
2022-08-05T18:53:50.413Z,35.99
2022-08-05T18:56:53.041Z,36.77
2022-08-05T19:00:03.275Z,37.41
2022-08-05T19:03:06.625Z,37.89
2022-08-05T19:06:21.761Z,38.33
2022-08-05T19:09:25.041Z,37.60
2022-08-05T19:12:29.768Z,38.33
2022-08-05T19:15:58.659Z,38.92
2022-08-05T19:18:56.775Z,39.92
2022-08-05T19:21:59.472Z,40.79
2022-08-05T19:25:02.545Z,41.89
2022-08-05T19:28:05.400Z,41.94
2022-08-05T19:31:08.431Z,42.56
2022-08-05T19:34:10.772Z,43.26
2022-08-05T19:37:14.228Z,43.86
2022-08-05T19:40:16.775Z,44.76
2022-08-05T19:44:04.159Z,44.04
2022-08-05T19:46:43.752Z,44.71
2022-08-05T19:49:48.187Z,46.22
2022-08-05T19:52:50.484Z,47.52
2022-08-05T19:56:15.368Z,46.54
2022-08-05T19:59:54.856Z,45.85
2022-08-05T20:02:38.514Z,46.46
2022-08-05T20:05:43.337Z,46.16
2022-08-05T20:08:53.183Z,46.54
2022-08-05T20:11:56.422Z,46.44
2022-08-05T20:14:58.935Z,46.82
2022-08-05T20:18:02.020Z,47.70
2022-08-05T20:21:07.034Z,48.28
2022-08-05T20:24:11.432Z,48.26
2022-08-05T20:27:13.996Z,48.44
2022-08-05T20:30:19.722Z,48.46
2022-08-05T20:33:22.297Z,48.58
2022-08-05T20:36:25.907Z,48.57
2022-08-05T20:39:36.675Z,49.48
2022-08-05T20:42:39.558Z,50.39
2022-08-05T20:45:55.781Z,50.71
2022-08-05T20:48:59.951Z,51.40
2022-08-05T20:52:05.023Z,51.46
2022-08-05T20:55:55.248Z,51.78
2022-08-05T20:58:32.788Z,51.86
2022-08-05T21:01:37.255Z,52.42
2022-08-05T21:04:40.691Z,52.52
2022-08-05T21:07:50.418Z,52.87
2022-08-05T21:10:55.562Z,53.19
2022-08-05T21:14:01.378Z,53.10
2022-08-05T21:17:05.490Z,53.21
2022-08-05T21:20:10.210Z,53.13
2022-08-05T21:23:13.298Z,53.26
2022-08-05T21:26:16.892Z,52.60
2022-08-05T21:29:20.104Z,53.57
2022-08-05T21:32:28.085Z,53.86
2022-08-05T21:35:43.792Z,54.95
2022-08-05T21:38:53.673Z,54.79
2022-08-05T21:42:01.937Z,54.92
2022-08-05T21:45:05.001Z,55.06
2022-08-05T21:48:07.984Z,55.17
2022-08-05T21:51:25.065Z,55.00
2022-08-05T21:54:33.211Z,54.92
2022-08-05T21:57:42.729Z,54.97
2022-08-05T22:00:50.909Z,54.97
2022-08-05T22:03:54.197Z,54.98
2022-08-05T22:06:57.062Z,55.60
2022-08-05T22:10:00.150Z,55.66
2022-08-05T22:13:09.313Z,56.18
2022-08-05T22:16:41.199Z,56.60
2022-08-05T22:19:57.413Z,57.10
2022-08-05T22:24:02.403Z,58.12
2022-08-05T22:27:10.794Z,59.28
2022-08-05T22:30:15.063Z,59.28
2022-08-05T22:33:19.584Z,59.27
2022-08-05T22:36:42.164Z,58.79
2022-08-05T22:39:50.312Z,58.69
2022-08-05T22:42:58.262Z,58.77
2022-08-05T22:46:02.577Z,58.75
2022-08-05T22:49:23.669Z,58.83
2022-08-05T22:52:34.490Z,58.97
2022-08-05T22:55:56.655Z,59.20
2022-08-05T22:59:02.920Z,59.88
2022-08-05T23:02:07.971Z,60.72
2022-08-05T23:05:10.420Z,60.58
2022-08-05T23:08:13.012Z,60.54
2022-08-05T23:11:16.578Z,60.89
2022-08-05T23:14:22.469Z,60.98
2022-08-05T23:17:34.541Z,61.90
2022-08-05T23:20:40.285Z,62.27
2022-08-05T23:23:45.580Z,62.75
2022-08-05T23:26:48.128Z,62.90
2022-08-05T23:29:50.763Z,64.03
2022-08-05T23:32:53.587Z,64.80
2022-08-05T23:35:56.601Z,65.19
2022-08-05T23:38:59.279Z,65.43
2022-08-05T23:42:01.735Z,66.45
2022-08-05T23:45:14.082Z,66.60
2022-08-05T23:48:17.883Z,67.96
2022-08-05T23:51:22.371Z,67.90
2022-08-05T23:54:26.737Z,68.30
2022-08-05T23:57:33.375Z,68.51
